Dobrodošli na spletni strani vremenske postaje Senovo. Vse informacije so informativnega značaja, saj vremenska postaja ni del državne mreže meteoroloških postaj. AKTUALNIH OBVESTIL NI.


Posebna pozornost v zvezi z vremenskimi dogajanji ni potrebna.    Posebna pozornost v zvezi z vremenskimi dogajanji ni potrebna.

Pogled proti Armezu več informacij Pogled proti Armezu


Bohor več informacij Bohor


Radar strel več informacij blitzortung!


Radar padavin več informacij rain snow radar


Obiščite še:

Template documentation
and downloads

And another site



Weather Underground, zgodovina - Tekstovno

Dnevni povzetek za Avgust 3, 2017 Enote:  Metrično    Angleško   Obe
« Predhodni Dan
Naslednji Dan »
Dnevni Tedenski Mesečni Letni Po meri
  Višja: Nižja: Povprečje:
Temperatura: -17.8 °C -7.9 °C -3.8 °C
Točka rosišča: -17.8 °C -8.6 °C -7 °C
Vlažnost: Humidity % 40 % 74 %
Hitrost vetra: 0 km/h 0 km/h 2.7 km/h
Sunki vetra: 0 km/h - -
Veter:- - SW
Zračni tlak: 0 hPa 34303.6 hPa -
Padavine: 33.02 mm    
Historical Graphs
 
 
Tabelarni podarki za Avgust 3, 2017
Čas Temperatura Točka rosišča Zračni tlak Veter Hitrost vetra Sunki vetra Vlažnost Intenziteta padavin (urna)
-17.8 °C -17.8 °C 0 hPa Calm     Humidity % 0 mm
00:00 -6.6 °C -8.2 °C 34669.3 hPa SSW 9.3 km/h 9.3 km/h 83 % 439.42 mm
00:05 -6.6 °C -8.2 °C 34635.4 hPa SSW 9.3 km/h 9.3 km/h 84 % 386.08 mm
00:10 -6.6 °C -8.2 °C 34635.4 hPa SSW 2.6 km/h 6.4 km/h 84 % 297.18 mm
00:15 -6.7 °C -8.1 °C 34635.4 hPa Calm     85 % 205.74 mm
00:20 -6.7 °C -8 °C 34567.7 hPa Calm     86 % 187.96 mm
00:25 -6.7 °C -7.9 °C 34567.7 hPa Calm     87 % 121.92 mm
00:30 -6.7 °C -7.9 °C 34567.7 hPa Calm   2.9 km/h 87 % 71.12 mm
00:35 -6.7 °C -7.9 °C 34601.5 hPa Calm   2.9 km/h 88 % 50.8 mm
00:40 -6.8 °C -7.9 °C 34601.5 hPa Calm     88 % 50.8 mm
00:45 -6.8 °C -7.9 °C 34601.5 hPa Calm     88 % 45.72 mm
00:55 -6.8 °C -7.7 °C 34567.7 hPa NW 3.1 km/h 16.9 km/h 90 % 45.72 mm
01:00 -6.8 °C -7.7 °C 34567.7 hPa NW 6.8 km/h 16.9 km/h 90 % 33.02 mm
01:05 -6.8 °C -7.7 °C 34567.7 hPa WNW 6.4 km/h 16.9 km/h 90 % 33.02 mm
01:11 -6.8 °C -7.8 °C 34567.7 hPa West 2.9 km/h 5.1 km/h 90 % 25.4 mm
01:16 -6.8 °C -7.8 °C 34567.7 hPa West 3.4 km/h 5.1 km/h 90 % 25.4 mm
01:21 -6.8 °C -7.8 °C 34533.8 hPa West 4.2 km/h 5.1 km/h 90 % 20.32 mm
01:26 -6.9 °C -7.8 °C 34533.8 hPa WNW 4.2 km/h 4.2 km/h 90 % 12.7 mm
01:31 -6.9 °C -7.8 °C 34533.8 hPa WSW 5.6 km/h 7.6 km/h 90 % 7.62 mm
01:36 -6.9 °C -7.7 °C 34567.7 hPa West 6.8 km/h 7.6 km/h 91 % 7.62 mm
01:41 -6.9 °C -7.8 °C 34567.7 hPa WNW 7.6 km/h 7.6 km/h 90 % 7.62 mm
01:46 -6.9 °C -7.8 °C 34567.7 hPa WNW 7.6 km/h 7.6 km/h 91 % 7.62 mm
01:51 -6.9 °C -7.8 °C 34533.8 hPa WNW 7.6 km/h 7.6 km/h 91 % 0 mm
01:56 -6.9 °C -7.8 °C 34533.8 hPa WNW 7.6 km/h 7.6 km/h 91 % 0 mm
02:01 -6.9 °C -7.8 °C 34533.8 hPa WNW 7.6 km/h 7.6 km/h 91 % 0 mm
02:06 -6.9 °C -7.8 °C 34533.8 hPa WNW 7.6 km/h 7.6 km/h 91 % 0 mm
02:11 -6.9 °C -7.8 °C 34533.8 hPa WNW 7.6 km/h 7.6 km/h 91 % 0 mm
02:16 -6.9 °C -7.8 °C 34533.8 hPa WNW 7.6 km/h 7.6 km/h 91 % 0 mm
02:21 -6.9 °C -7.8 °C 34533.8 hPa WNW 7.6 km/h 7.6 km/h 91 % 0 mm
02:26 -6.9 °C -7.8 °C 34533.8 hPa WNW 7.6 km/h 7.6 km/h 91 % 0 mm
02:31 -6.9 °C -7.8 °C 34533.8 hPa WNW 7.6 km/h 7.6 km/h 91 % 0 mm
02:36 -7 °C -7.8 °C 34496.6 hPa WNW 7.6 km/h 7.6 km/h 91 % 0 mm
02:41 -7 °C -7.8 °C 34496.6 hPa WNW 7.6 km/h 7.6 km/h 91 % 0 mm
02:46 -7.1 °C -7.8 °C 34496.6 hPa WNW 7.6 km/h 7.6 km/h 92 % 0 mm
02:51 -7.1 °C -7.8 °C 34533.8 hPa WNW 7.6 km/h 7.6 km/h 92 % 0 mm
02:56 -7.1 °C -7.9 °C 34533.8 hPa WNW 7.6 km/h 7.6 km/h 91 % 0 mm
03:01 -7.1 °C -7.9 °C 34533.8 hPa WNW 7.6 km/h 7.6 km/h 91 % 0 mm
03:06 -7.2 °C -7.9 °C 34533.8 hPa WNW 7.6 km/h 7.6 km/h 92 % 0 mm
03:11 -7.2 °C -7.9 °C 34533.8 hPa WNW 7.6 km/h 7.6 km/h 92 % 0 mm
03:16 -7.3 °C -8 °C 34533.8 hPa WNW 7.6 km/h 7.6 km/h 92 % 0 mm
03:21 -7.3 °C -8 °C 34567.7 hPa WNW 7.6 km/h 7.6 km/h 92 % 0 mm
03:26 -7.3 °C -8.1 °C 34567.7 hPa WNW 7.6 km/h 7.6 km/h 92 % 0 mm
03:31 -7.4 °C -8.1 °C 34567.7 hPa WNW 7.6 km/h 7.6 km/h 92 % 0 mm
03:36 -7.4 °C -8.1 °C 34567.7 hPa WNW 7.6 km/h 7.6 km/h 92 % 0 mm
03:41 -7.4 °C -8 °C 34567.7 hPa WNW 7.6 km/h 7.6 km/h 93 % 0 mm
03:46 -7.4 °C -8.1 °C 34567.7 hPa WNW 7.6 km/h 7.6 km/h 93 % 0 mm
03:51 -7.4 °C -8.1 °C 34533.8 hPa WNW 7.6 km/h 7.6 km/h 93 % 0 mm
03:56 -7.4 °C -8.1 °C 34533.8 hPa WNW 7.6 km/h 7.6 km/h 93 % 0 mm
04:01 -7.5 °C -8.2 °C 34533.8 hPa WNW 7.6 km/h 7.6 km/h 93 % 0 mm
04:06 -7.5 °C -8.2 °C 34496.6 hPa WNW 7.6 km/h 7.6 km/h 93 % 0 mm
04:11 -7.6 °C -8.2 °C 34496.6 hPa WNW 7.6 km/h 7.6 km/h 93 % 0 mm
04:16 -7.6 °C -8.2 °C 34496.6 hPa WNW 7.6 km/h 7.6 km/h 93 % 0 mm
04:21 -7.6 °C -8.2 °C 34496.6 hPa Calm     93 % 0 mm
04:26 -7.7 °C -8.3 °C 34496.6 hPa Calm     93 % 0 mm
04:31 -7.7 °C -8.4 °C 34496.6 hPa Calm     93 % 0 mm
04:36 -7.8 °C -8.4 °C 34496.6 hPa Calm     93 % 0 mm
04:41 -7.8 °C -8.4 °C 34496.6 hPa Calm     93 % 0 mm
04:46 -7.8 °C -8.4 °C 34496.6 hPa Calm     93 % 0 mm
04:51 -7.8 °C -8.4 °C 34496.6 hPa Calm     93 % 0 mm
04:56 -7.9 °C -8.5 °C 34496.6 hPa Calm     93 % 0 mm
04:57 -7.9 °C -8.4 °C 34496.6 hPa Calm     94 % 0 mm
05:02 -7.9 °C -8.5 °C 34496.6 hPa Calm     93 % 0 mm
05:07 -7.9 °C -8.6 °C 34496.6 hPa Calm     93 % 0 mm
05:12 -7.9 °C -8.5 °C 34496.6 hPa Calm     94 % 0 mm
05:22 -7.9 °C -8.4 °C 34496.6 hPa Calm     94 % 0 mm
05:23 -7.9 °C -8.4 °C 34496.6 hPa Calm     94 % 0 mm
05:24 -7.9 °C -8.4 °C 34496.6 hPa Calm     94 % 0 mm
05:25 -7.9 °C -8.4 °C 34496.6 hPa Calm     94 % 0 mm
05:29 -7.9 °C -8.4 °C 34496.6 hPa Calm     94 % 0 mm
05:32 -7.9 °C -8.4 °C 34496.6 hPa Calm     94 % 0 mm
05:35 -7.8 °C -8.4 °C 34496.6 hPa Calm     94 % 0 mm
05:45 -7.8 °C -8.2 °C 34496.6 hPa Calm     95 % 0 mm
05:50 -7.7 °C -8.2 °C 34533.8 hPa Calm     95 % 0 mm
05:55 -7.7 °C -8.1 °C 34533.8 hPa Calm     95 % 0 mm
06:00 -7.7 °C -8.1 °C 34533.8 hPa Calm     95 % 0 mm
06:05 -7.7 °C -8.1 °C 34533.8 hPa Calm     95 % 0 mm
06:10 -7.7 °C -8.1 °C 34533.8 hPa Calm     95 % 0 mm
06:15 -7.6 °C -8.1 °C 34533.8 hPa Calm     95 % 0 mm
06:20 -7.6 °C -8.1 °C 34533.8 hPa Calm     95 % 0 mm
06:26 -7.6 °C -8.1 °C 34533.8 hPa Calm     95 % 0 mm
06:31 -7.6 °C -8.1 °C 34533.8 hPa Calm     95 % 0 mm
06:36 -7.6 °C -8 °C 34533.8 hPa Calm     95 % 0 mm
06:41 -7.6 °C -8 °C 34533.8 hPa Calm     95 % 0 mm
06:46 -7.6 °C -8 °C 34533.8 hPa Calm     95 % 0 mm
06:51 -7.6 °C -8 °C 34567.7 hPa Calm     95 % 0 mm
06:56 -7.6 °C -8 °C 34567.7 hPa Calm     95 % 0 mm
07:01 -7.5 °C -7.9 °C 34567.7 hPa Calm     95 % 0 mm
07:06 -7.5 °C -7.9 °C 34567.7 hPa Calm     95 % 0 mm
07:11 -7.4 °C -7.9 °C 34567.7 hPa Calm     95 % 0 mm
07:16 -7.4 °C -7.9 °C 34567.7 hPa Calm     95 % 0 mm
07:21 -7.4 °C -7.9 °C 34533.8 hPa Calm     95 % 0 mm
07:26 -7.4 °C -7.9 °C 34533.8 hPa Calm     95 % 0 mm
07:31 -7.4 °C -7.8 °C 34533.8 hPa Calm     95 % 0 mm
07:36 -7.4 °C -7.8 °C 34533.8 hPa Calm     95 % 0 mm
07:41 -7.3 °C -7.8 °C 34533.8 hPa Calm     95 % 0 mm
07:46 -7.3 °C -7.8 °C 34533.8 hPa Calm     95 % 0 mm
07:51 -7.3 °C -7.7 °C 34533.8 hPa Calm     95 % 0 mm
07:56 -7.2 °C -7.6 °C 34533.8 hPa Calm     95 % 0 mm
08:01 -7.2 °C -7.6 °C 34533.8 hPa Calm     95 % 0 mm
08:06 -7.1 °C -7.6 °C 34567.7 hPa Calm     95 % 0 mm
08:11 -7.1 °C -7.5 °C 34567.7 hPa Calm     95 % 0 mm
08:16 -7 °C -7.4 °C 34567.7 hPa Calm     95 % 0 mm
08:21 -6.9 °C -7.3 °C 34496.6 hPa Calm     95 % 0 mm
08:26 -6.8 °C -7.2 °C 34496.6 hPa Calm     95 % 0 mm
08:31 -6.8 °C -7.3 °C 34496.6 hPa Calm     94 % 0 mm
08:36 -6.7 °C -7.2 °C 34533.8 hPa Calm     94 % 0 mm
08:41 -6.6 °C -7.1 °C 34533.8 hPa Calm     94 % 0 mm
08:47 -6.3 °C -6.8 °C 34533.8 hPa Calm     94 % 0 mm
08:51 -6.2 °C -6.8 °C 34533.8 hPa Calm     93 % 0 mm
08:56 -6.1 °C -6.8 °C 34533.8 hPa Calm     92 % 0 mm
09:01 -5.9 °C -6.7 °C 34533.8 hPa Calm     92 % 0 mm
09:06 -5.8 °C -6.6 °C 34533.8 hPa Calm     91 % 0 mm
09:11 -5.6 °C -6.4 °C 34533.8 hPa Calm     91 % 0 mm
09:17 -5.3 °C -6.3 °C 34533.8 hPa Calm     90 % 0 mm
09:22 -5.1 °C -6.1 °C 34533.8 hPa Calm     90 % 0 mm
09:27 -4.9 °C -6.1 °C 34533.8 hPa Calm     88 % 0 mm
09:32 -4.8 °C -5.9 °C 34533.8 hPa Calm     88 % 0 mm
09:37 -4.6 °C -6 °C 34533.8 hPa Calm     86 % 0 mm
09:42 -4.6 °C -5.9 °C 34533.8 hPa Calm     86 % 0 mm
09:47 -4.4 °C -6 °C 34533.8 hPa Calm     84 % 0 mm
09:53 -4.3 °C -6 °C 34567.7 hPa Calm     83 % 0 mm
09:58 -4.1 °C -5.8 °C 34567.7 hPa Calm     83 % 0 mm
10:03 -3.9 °C -5.9 °C 34567.7 hPa Calm     81 % 0 mm
10:07 -3.8 °C -5.8 °C 34533.8 hPa Calm     80 % 0 mm
10:13 -3.6 °C -5.9 °C 34533.8 hPa Calm     78 % 0 mm
10:18 -3.6 °C -5.8 °C 34533.8 hPa Calm     78 % 0 mm
10:23 -3.4 °C -6 °C 34533.8 hPa Calm     76 % 0 mm
10:28 -3.3 °C -5.8 °C 34533.8 hPa Calm   2.3 km/h 76 % 0 mm
10:33 -3.2 °C -5.9 °C 34533.8 hPa Calm   2.3 km/h 74 % 0 mm
10:38 -3 °C -5.7 °C 34533.8 hPa Calm     75 % 0 mm
10:43 -2.8 °C -5.6 °C 34533.8 hPa Calm   2.3 km/h 74 % 0 mm
10:48 -2.7 °C -5.8 °C 34533.8 hPa Calm   2.3 km/h 72 % 0 mm
10:53 -2.6 °C -5.7 °C 34496.6 hPa SE 1.3 km/h 9.3 km/h 72 % 0 mm
10:58 -2.4 °C -5.5 °C 34496.6 hPa SE 3.1 km/h 9.8 km/h 72 % 0 mm
11:03 -2.3 °C -5.6 °C 34496.6 hPa ESE 3.1 km/h 9.8 km/h 70 % 0 mm
11:08 -2.2 °C -5.9 °C 34496.6 hPa ESE 2.9 km/h 9.3 km/h 67 % 0 mm
11:13 -2.2 °C -5.8 °C 34496.6 hPa ESE 2.3 km/h 8.9 km/h 68 % 0 mm
11:18 -2.2 °C -5.9 °C 34496.6 hPa ESE 1 km/h 8.9 km/h 67 % 0 mm
11:23 -2.1 °C -5.8 °C 34476.3 hPa SE 0.8 km/h 8.9 km/h 67 % 0 mm
11:28 -2 °C -5.9 °C 34476.3 hPa SE 0.8 km/h 8.9 km/h 66 % 0 mm
11:33 -1.9 °C -5.8 °C 34476.3 hPa South 0.8 km/h 7.6 km/h 66 % 0 mm
11:38 -1.8 °C -5.7 °C 34476.3 hPa SSE 2.6 km/h 8 km/h 66 % 0 mm
11:43 -1.7 °C -6 °C 34476.3 hPa ESE 2.1 km/h 8 km/h 63 % 0 mm
11:48 -1.6 °C -5.7 °C 34476.3 hPa ESE 2.1 km/h 8.9 km/h 64 % 0 mm
11:53 -1.4 °C -5.8 °C 34476.3 hPa SSE 2.3 km/h 8.9 km/h 63 % 0 mm
11:58 -1.3 °C -5.9 °C 34476.3 hPa WSW 0.5 km/h 6.4 km/h 61 % 0 mm
12:03 -1.2 °C -5.8 °C 34476.3 hPa East 0.5 km/h 7.6 km/h 61 % 0 mm
12:08 -1.1 °C -6 °C 34428.8 hPa SE 1 km/h 8.9 km/h 59 % 0 mm
12:13 -0.9 °C -5.7 °C 34428.8 hPa SSE 1.8 km/h 11.1 km/h 60 % 0 mm
12:18 -0.8 °C -6.1 °C 34428.8 hPa SSE 2.3 km/h 11.1 km/h 57 % 0 mm
12:23 -0.7 °C -5.8 °C 34476.3 hPa SSE 3.1 km/h 11.1 km/h 58 % 0 mm
12:28 -0.6 °C -5.9 °C 34476.3 hPa SSE 5 km/h 11.1 km/h 57 % 0 mm
12:33 -0.4 °C -6.1 °C 34476.3 hPa SSE 6.3 km/h 11.1 km/h 55 % 0 mm
12:38 -0.3 °C -6.1 °C 34476.3 hPa SSE 5.6 km/h 11.1 km/h 54 % 0 mm
12:39 -0.3 °C -6.5 °C 34476.3 hPa SE 5 km/h 11.1 km/h 52 % 0 mm
12:44 -0.2 °C -6.5 °C 34476.3 hPa SSW 4.7 km/h 15 km/h 51 % 0 mm
12:49 -0.2 °C -6.8 °C 34476.3 hPa WSW 6 km/h 15 km/h 49 % 0 mm
12:54 -0.1 °C -6.8 °C 34476.3 hPa WSW 6.3 km/h 11.1 km/h 49 % 0 mm
12:59 0 °C -6.7 °C 34476.3 hPa SW 4.3 km/h 11.1 km/h 49 % 0 mm
13:04 0 °C -7.3 °C 34476.3 hPa WSW 6.3 km/h 15.6 km/h 46 % 0 mm
13:09 0 °C -7.1 °C 34476.3 hPa WSW 6.9 km/h 15.6 km/h 47 % 0 mm
13:14 0.1 °C -7 °C 34476.3 hPa SW 5.5 km/h 12.2 km/h 47 % 0 mm
13:19 0.1 °C -7 °C 34428.8 hPa WSW 3.9 km/h 9.3 km/h 47 % 0 mm
13:24 0.3 °C -6.4 °C 34428.8 hPa SW 2.6 km/h 12.2 km/h 49 % 0 mm
13:29 0.3 °C -6.4 °C 34428.8 hPa SW 5 km/h 12.2 km/h 49 % 0 mm
13:34 0.3 °C -6.4 °C 34428.8 hPa SW 6.8 km/h 12.7 km/h 49 % 0 mm
13:39 0.4 °C -6.3 °C 34428.8 hPa SW 5.6 km/h 12.7 km/h 49 % 0 mm
13:44 0.6 °C -6.3 °C 34428.8 hPa SW 4.3 km/h 10.3 km/h 48 % 0 mm
13:49 0.6 °C -6.6 °C 34428.8 hPa SW 3.7 km/h 10.3 km/h 47 % 0 mm
13:54 0.4 °C -6.5 °C 34428.8 hPa South 2.9 km/h 10.3 km/h 48 % 0 mm
13:59 0.5 °C -6.4 °C 34428.8 hPa SW 5 km/h 11.1 km/h 48 % 0 mm
14:04 0.6 °C -6.5 °C 34428.8 hPa SW 6 km/h 11.1 km/h 47 % 0 mm
14:09 0.7 °C -6.2 °C 34428.8 hPa SE 4.2 km/h 9.8 km/h 48 % 0 mm
14:14 0.8 °C -6.1 °C 34428.8 hPa SE 4.7 km/h 10.3 km/h 48 % 0 mm
14:19 0.9 °C -6.2 °C 34405.1 hPa SSE 6 km/h 11.1 km/h 47 % 0 mm
14:24 1 °C -6.3 °C 34405.1 hPa SSW 6.3 km/h 11.1 km/h 46 % 0 mm
14:29 1.1 °C -6.5 °C 34405.1 hPa SSW 6.3 km/h 10.3 km/h 45 % 0 mm
14:30 1.1 °C -6.5 °C 34405.1 hPa SSW 5.6 km/h 10.3 km/h 45 % 0 mm
14:35 1.1 °C -6.4 °C 34405.1 hPa SSE 5 km/h 11.1 km/h 45 % 0 mm
14:40 1.1 °C -6.4 °C 34405.1 hPa SE 5 km/h 11.1 km/h 45 % 0 mm
14:45 1.1 °C -6.4 °C 34405.1 hPa ESE 4.3 km/h 8 km/h 45 % 0 mm
14:50 1.2 °C -6.2 °C 34405.1 hPa SE 3.7 km/h 8.9 km/h 46 % 0 mm
14:55 1.1 °C -6.8 °C 34405.1 hPa SE 3.9 km/h 9.8 km/h 43 % 0 mm
15:00 0.9 °C -6.8 °C 34405.1 hPa ENE 5.5 km/h 10.3 km/h 44 % 0 mm
15:05 0.9 °C -6.4 °C 34371.3 hPa ENE 5.6 km/h 10.3 km/h 46 % 0 mm
15:09 0.9 °C -6.4 °C 34371.3 hPa ENE 4.7 km/h 9.3 km/h 46 % 0 mm
15:14 1.1 °C -6.3 °C 34371.3 hPa SE 5.1 km/h 10.3 km/h 46 % 0 mm
15:19 1.1 °C -6.3 °C 34371.3 hPa SSE 6 km/h 15.6 km/h 46 % 0 mm
15:24 1.2 °C -6.2 °C 34371.3 hPa SE 6.9 km/h 16.9 km/h 46 % 0 mm
15:29 1.3 °C -6.1 °C 34371.3 hPa SE 9 km/h 16.9 km/h 46 % 0 mm
15:34 1.3 °C -6.2 °C 34405.1 hPa SE 7.2 km/h 16.3 km/h 45 % 0 mm
15:39 1.3 °C -6.2 °C 34405.1 hPa ESE 4.7 km/h 12.7 km/h 45 % 0 mm
15:44 1.4 °C -6.4 °C 34405.1 hPa SSE 6.3 km/h 12.7 km/h 44 % 0 mm
15:49 1.4 °C -6.3 °C 34405.1 hPa SSE 6.4 km/h 12.2 km/h 44 % 0 mm
15:54 1.5 °C -6.3 °C 34405.1 hPa SSE 6.3 km/h 11.6 km/h 44 % 0 mm
15:59 1.5 °C -6.3 °C 34405.1 hPa SE 7.2 km/h 11.6 km/h 44 % 0 mm
16:04 1.5 °C -6.3 °C 34405.1 hPa SE 6.3 km/h 10.3 km/h 44 % 0 mm
16:09 1.5 °C -6.3 °C 34405.1 hPa South 5 km/h 9.3 km/h 44 % 0 mm
16:14 1.6 °C -6.1 °C 34405.1 hPa SSW 2.9 km/h 8.9 km/h 45 % 0 mm
16:19 1.6 °C -6 °C 34405.1 hPa SE 1.6 km/h 6.4 km/h 45 % 0 mm
16:24 1.7 °C -5.9 °C 34405.1 hPa SE 2.3 km/h 8.9 km/h 45 % 0 mm
16:29 1.7 °C -5.9 °C 34405.1 hPa SE 3.4 km/h 14 km/h 45 % 0 mm
16:34 1.7 °C -5.9 °C 34405.1 hPa SSE 5 km/h 14 km/h 45 % 0 mm
16:39 1.7 °C -6.2 °C 34405.1 hPa SSE 6.4 km/h 14 km/h 44 % 0 mm
16:44 1.7 °C -6.1 °C 34405.1 hPa SE 7.6 km/h 14 km/h 44 % 0 mm
16:49 1.7 °C -6.3 °C 34371.3 hPa SE 6.3 km/h 11.1 km/h 43 % 0 mm
16:54 1.8 °C -6.1 °C 34371.3 hPa ESE 5 km/h 9.8 km/h 44 % 0 mm
16:59 1.8 °C -6.3 °C 34371.3 hPa ESE 4.3 km/h 10.3 km/h 43 % 0 mm
17:04 1.7 °C -6.3 °C 34337.4 hPa ESE 5.5 km/h 15 km/h 43 % 0 mm
17:09 1.7 °C -6.6 °C 34337.4 hPa ESE 4.7 km/h 15 km/h 42 % 0 mm
17:14 1.6 °C -6.6 °C 34337.4 hPa East 2.6 km/h 9.3 km/h 42 % 0 mm
17:19 1.6 °C -6.6 °C 34337.4 hPa East 3.9 km/h 9.3 km/h 42 % 0 mm
17:24 1.7 °C -6.6 °C 34337.4 hPa SE 5.6 km/h 10.3 km/h 42 % 0 mm
17:29 1.7 °C -6.6 °C 34337.4 hPa South 6.3 km/h 11.1 km/h 42 % 0 mm
17:34 1.6 °C -6.6 °C 34337.4 hPa South 5.6 km/h 11.1 km/h 42 % 0 mm
17:39 1.6 °C -6.6 °C 34337.4 hPa SSE 4.7 km/h 10.3 km/h 42 % 0 mm
17:44 1.6 °C -6.6 °C 34337.4 hPa SSE 5.1 km/h 11.1 km/h 42 % 0 mm
17:49 1.5 °C -6.9 °C 34337.4 hPa South 5.6 km/h 14 km/h 41 % 0 mm
17:54 1.4 °C -7 °C 34337.4 hPa South 5.1 km/h 14 km/h 41 % 0 mm
17:59 1.4 °C -7.3 °C 34337.4 hPa South 3.1 km/h 9.8 km/h 40 % 0 mm
18:04 1.3 °C -7.1 °C 34303.6 hPa SE 1 km/h 8.9 km/h 41 % 0 mm
18:05 1.2 °C -7.2 °C 34303.6 hPa East 1.3 km/h 8.9 km/h 41 % 0 mm
18:10 0.9 °C -7.1 °C 34303.6 hPa NE 4.2 km/h 14 km/h 43 % 0 mm
18:15 0.4 °C -7.3 °C 34303.6 hPa NNE 6.8 km/h 14 km/h 44 % 0 mm
18:20 0.2 °C -7.1 °C 34337.4 hPa NNW 6.3 km/h 9.8 km/h 46 % 0 mm
18:25 -0.1 °C -7.1 °C 34337.4 hPa NW 4.7 km/h 7.6 km/h 47 % 0 mm
18:30 -0.4 °C -6.6 °C 34337.4 hPa NW 2.3 km/h 6.9 km/h 52 % 0 mm
18:36 -0.8 °C -6.7 °C 34303.6 hPa North 0.5 km/h 5.6 km/h 53 % 0 mm
18:41 -1 °C -6.7 °C 34303.6 hPa NNW 1 km/h 6.4 km/h 54 % 0 mm
18:46 -1.3 °C -6.6 °C 34303.6 hPa NNW 2.3 km/h 6.4 km/h 57 % 0 mm
18:51 -1.6 °C -6.6 °C 34337.4 hPa NNW 2.1 km/h 7.6 km/h 58 % 0 mm
18:56 -1.7 °C -6.4 °C 34337.4 hPa NW 2.3 km/h 7.6 km/h 60 % 0 mm
19:01 -1.8 °C -6.3 °C 34337.4 hPa NW 3.1 km/h 6.4 km/h 61 % 0 mm
19:06 -1.8 °C -6.4 °C 34303.6 hPa NW 2.3 km/h 7.6 km/h 61 % 0 mm
19:11 -1.9 °C -6.5 °C 34303.6 hPa NNW 3.1 km/h 8 km/h 61 % 0 mm
19:16 -1.9 °C -6.2 °C 34303.6 hPa NW 4.2 km/h 8.9 km/h 63 % 0 mm
19:21 -2 °C -6.3 °C 34303.6 hPa NNW 3.9 km/h 8.9 km/h 63 % 0 mm
19:26 -2.1 °C -6.2 °C 34303.6 hPa NNW 3.4 km/h 9.8 km/h 64 % 0 mm
19:31 -2.2 °C -6.2 °C 34303.6 hPa NNW 4.7 km/h 9.8 km/h 65 % 0 mm
19:36 -2.3 °C -6.3 °C 34337.4 hPa NNW 4.7 km/h 11.1 km/h 65 % 0 mm
19:41 -2.4 °C -6.2 °C 34337.4 hPa NW 4.3 km/h 11.1 km/h 66 % 0 mm
19:46 -2.5 °C -6.2 °C 34337.4 hPa NW 3.9 km/h 8.9 km/h 67 % 0 mm
19:51 -2.6 °C -6.3 °C 34337.4 hPa NW 4.2 km/h 8 km/h 67 % 0 mm
19:56 -2.7 °C -6.3 °C 34337.4 hPa NW 5.6 km/h 8 km/h 68 % 0 mm
20:01 -2.9 °C -6.4 °C 34337.4 hPa NNW 3.4 km/h 7.6 km/h 68 % 0 mm
20:06 -3 °C -6.3 °C 34337.4 hPa NNW 2.1 km/h 7.6 km/h 70 % 0 mm
20:11 -3.2 °C -6.3 °C 34337.4 hPa NNW 1.3 km/h 6.4 km/h 71 % 0 mm
20:16 -3.3 °C -6.4 °C 34337.4 hPa NW 0.5 km/h 5.6 km/h 71 % 0 mm
20:21 -3.4 °C -6.4 °C 34337.4 hPa NW 2.9 km/h 8 km/h 72 % 0 mm
20:26 -3.5 °C -6.3 °C 34337.4 hPa NW 2.6 km/h 8 km/h 74 % 0 mm
20:31 -3.7 °C -6.4 °C 34337.4 hPa NW 0.5 km/h 3.4 km/h 74 % 0 mm
20:36 -3.8 °C -6.5 °C 34303.6 hPa Calm     75 % 0 mm
20:41 -3.9 °C -6.6 °C 34303.6 hPa Calm     74 % 0 mm
20:46 -4 °C -6.6 °C 34303.6 hPa NW 1.6 km/h 6.4 km/h 75 % 0 mm
20:51 -4.1 °C -6.6 °C 34337.4 hPa NW 2.6 km/h 6.4 km/h 76 % 0 mm
20:56 -4.1 °C -6.5 °C 34337.4 hPa NW 1 km/h 5.6 km/h 77 % 0 mm
21:01 -4.2 °C -6.6 °C 34337.4 hPa NW 0.5 km/h 5.1 km/h 77 % 0 mm
21:06 -4.3 °C -6.7 °C 34337.4 hPa NNW 0.3 km/h 4.2 km/h 77 % 0 mm
21:11 -4.4 °C -6.8 °C 34337.4 hPa Calm     77 % 0 mm
21:16 -4.5 °C -6.8 °C 34337.4 hPa Calm     78 % 0 mm
21:21 -4.6 °C -6.8 °C 34337.4 hPa WNW 0.5 km/h 6.4 km/h 78 % 0 mm
21:26 -4.6 °C -6.8 °C 34337.4 hPa NW 1.6 km/h 6.9 km/h 79 % 0 mm
21:31 -4.7 °C -6.8 °C 34337.4 hPa NW 1.8 km/h 6.9 km/h 79 % 0 mm
21:36 -4.7 °C -6.8 °C 34371.3 hPa Calm     79 % 0 mm
21:41 -4.8 °C -6.8 °C 34371.3 hPa Calm     80 % 0 mm
21:46 -4.8 °C -6.8 °C 34371.3 hPa Calm     80 % 0 mm
21:51 -4.8 °C -6.8 °C 34371.3 hPa Calm     80 % 0 mm
21:56 -4.9 °C -6.8 °C 34371.3 hPa Calm     81 % 0 mm
22:01 -4.9 °C -6.8 °C 34371.3 hPa Calm     81 % 0 mm
22:06 -5 °C -6.9 °C 34371.3 hPa Calm     81 % 0 mm
22:11 -5.1 °C -6.8 °C 34371.3 hPa Calm     82 % 0 mm
22:16 -5.1 °C -6.8 °C 34371.3 hPa Calm     83 % 0 mm
22:21 -5.2 °C -7 °C 34405.1 hPa Calm     82 % 0 mm
22:26 -5.2 °C -6.8 °C 34405.1 hPa Calm     83 % 0 mm
22:31 -5.2 °C -6.9 °C 34405.1 hPa Calm     83 % 0 mm
22:36 -5.2 °C -6.8 °C 34405.1 hPa ESE 0.5 km/h 4.2 km/h 84 % 0 mm
22:42 -5.3 °C -6.8 °C 34405.1 hPa ESE 0.5 km/h 4.2 km/h 84 % 0 mm
22:47 -5.3 °C -6.9 °C 34405.1 hPa Calm     84 % 0 mm
22:52 -5.4 °C -6.8 °C 34405.1 hPa Calm     85 % 0 mm
22:57 -5.4 °C -6.8 °C 34405.1 hPa Calm     85 % 0 mm
23:02 -5.4 °C -6.9 °C 34405.1 hPa Calm     85 % 0 mm
23:07 -5.4 °C -6.8 °C 34405.1 hPa Calm     86 % 0 mm
23:12 -5.5 °C -6.8 °C 34405.1 hPa Calm     86 % 0 mm
23:17 -5.6 °C -6.9 °C 34405.1 hPa Calm     86 % 0 mm
23:22 -5.6 °C -6.9 °C 34405.1 hPa Calm     86 % 0 mm
23:27 -5.6 °C -6.9 °C 34405.1 hPa Calm     87 % 0 mm
23:32 -5.6 °C -6.9 °C 34405.1 hPa Calm     87 % 0 mm
23:37 -5.7 °C -6.9 °C 34405.1 hPa Calm     87 % 0 mm
23:42 -5.7 °C -6.8 °C 34405.1 hPa Calm     88 % 0 mm
23:47 -5.7 °C -6.9 °C 34405.1 hPa Calm     88 % 0 mm
23:52 -5.8 °C -6.9 °C 34405.1 hPa Calm     88 % 0 mm
23:57 -5.8 °C -6.9 °C 34405.1 hPa Calm     88 % 0 mm
Vremenska postaja Senovo
Podatki zbrani iz Weather Underground - 3 mb

Script developed by  Jim McMurry - jmcmurry@mwt.net Adapted for the template by  Wim van der Kuil - Leuven-Template.eu

Vremenski podatki so objavljeni na:

European Weather Network

WeatherCloud

Weather Underground

AWEKAS

HAMweather, WeatherForYou, PWS Weather

MapView

Geostik

Slovenia weather network

Oprema, ki se uporablja:

Vremenski program
Cumulus

Vremenski server
Asus

Cumulus

Asus